createdAt,value
2019-01-16T00:00:20.520Z,96312.00
2019-01-16T00:03:19.620Z,96332.65
2019-01-16T00:06:20.798Z,96333.91
2019-01-16T00:09:29.436Z,96331.64
2019-01-16T00:12:31.134Z,96326.04
2019-01-16T00:15:35.210Z,96330.47
2019-01-16T00:21:50.440Z,96327.14
2019-01-16T00:24:46.022Z,96334.39
2019-01-16T00:27:54.741Z,96329.57
2019-01-16T00:31:03.372Z,96321.85
2019-01-16T00:34:08.704Z,96320.75
2019-01-16T00:37:10.161Z,96316.44
2019-01-16T00:40:11.941Z,96310.35
2019-01-16T00:43:18.773Z,96306.23
2019-01-16T00:46:27.805Z,96301.73
2019-01-16T00:49:36.531Z,96281.17
2019-01-16T00:52:45.451Z,96290.34
2019-01-16T00:55:54.061Z,96293.27
2019-01-16T00:59:02.763Z,96279.53
2019-01-16T01:02:11.481Z,96291.44
2019-01-16T01:05:20.636Z,96259.94
2019-01-16T01:08:29.234Z,96276.86
2019-01-16T01:11:33.512Z,96283.08
2019-01-16T01:14:42.180Z,96275.21
2019-01-16T01:17:43.556Z,96255.66
2019-01-16T01:20:52.145Z,96268.92
2019-01-16T01:23:53.519Z,96269.39
2019-01-16T01:27:02.509Z,96276.61
2019-01-16T01:30:06.168Z,96276.92
2019-01-16T01:33:15.934Z,96268.13
2019-01-16T01:36:24.555Z,96283.71
2019-01-16T01:39:27.007Z,96275.74
2019-01-16T01:42:36.133Z,96278.28
2019-01-16T01:45:45.126Z,96282.06
2019-01-16T01:48:47.016Z,96278.30
2019-01-16T01:55:09.767Z,96248.55
2019-01-16T01:58:09.312Z,96259.20
2019-01-16T02:01:13.307Z,96264.26
2019-01-16T02:04:21.885Z,96255.44
2019-01-16T02:07:23.005Z,96250.87
2019-01-16T02:10:31.733Z,96258.51
2019-01-16T02:16:24.860Z,96243.31
2019-01-16T02:19:34.000Z,96254.23
2019-01-16T02:34:34.741Z,96237.14
2019-01-16T02:37:36.866Z,96239.91
2019-01-16T02:40:45.552Z,96233.91
2019-01-16T02:43:46.556Z,96227.27
2019-01-16T02:47:14.839Z,96227.28
2019-01-16T02:50:15.952Z,96229.36
2019-01-16T02:53:24.815Z,96224.44
2019-01-16T02:56:32.461Z,96220.01
2019-01-16T02:59:41.460Z,96221.80
2019-01-16T03:06:14.632Z,96206.02
2019-01-16T03:15:27.003Z,96194.37
2019-01-16T03:18:19.345Z,96196.81
2019-01-16T03:21:23.480Z,96190.63
2019-01-16T03:24:32.139Z,96184.41
2019-01-16T03:27:41.118Z,96171.80
2019-01-16T03:30:46.938Z,96174.87
2019-01-16T03:33:39.778Z,96166.93
2019-01-16T03:36:48.422Z,96171.48
2019-01-16T03:39:57.405Z,96167.70
2019-01-16T03:43:06.279Z,96165.50
2019-01-16T03:46:14.972Z,96144.63
2019-01-16T03:49:24.084Z,96156.45
2019-01-16T03:52:48.633Z,96156.39
2019-01-16T03:55:52.617Z,96154.95
2019-01-16T03:59:01.758Z,96154.17
2019-01-16T04:02:03.940Z,96140.25
2019-01-16T04:05:13.603Z,96127.47
2019-01-16T04:08:21.160Z,96119.20
2019-01-16T04:11:22.432Z,96130.09
2019-01-16T04:14:23.322Z,96136.94
2019-01-16T04:17:32.770Z,96134.73
2019-01-16T04:20:22.651Z,96124.43
2019-01-16T04:23:31.657Z,96120.66
2019-01-16T04:26:32.692Z,96120.18
2019-01-16T04:29:42.583Z,96136.23
2019-01-16T04:32:50.295Z,96131.68
2019-01-16T04:35:59.440Z,96128.97
2019-01-16T04:39:02.711Z,96128.24
2019-01-16T04:48:02.405Z,96119.03
2019-01-16T04:51:04.818Z,96111.52
2019-01-16T04:54:14.489Z,96093.89
2019-01-16T04:57:15.508Z,96106.80
2019-01-16T05:00:45.485Z,96105.92
2019-01-16T05:03:46.660Z,96102.56
2019-01-16T05:06:55.990Z,96079.75
2019-01-16T05:09:57.358Z,96095.09
2019-01-16T05:13:05.970Z,96090.83
2019-01-16T05:16:13.245Z,96087.28
2019-01-16T05:19:21.904Z,96085.87
2019-01-16T05:22:28.744Z,96084.69
2019-01-16T05:25:37.344Z,96077.70
2019-01-16T05:28:38.624Z,96080.53
2019-01-16T05:31:47.481Z,96068.87
2019-01-16T05:34:54.935Z,96084.85
2019-01-16T05:38:03.500Z,96081.38
2019-01-16T05:41:05.077Z,96081.85
2019-01-16T05:44:13.656Z,96080.05
2019-01-16T05:47:20.819Z,96081.91
2019-01-16T05:53:20.326Z,96067.76
2019-01-16T05:56:29.011Z,96066.05
2019-01-16T05:59:37.771Z,96062.66
2019-01-16T06:02:46.427Z,96064.45
2019-01-16T06:05:55.059Z,96057.14
2019-01-16T06:09:17.121Z,96031.11
2019-01-16T06:12:18.548Z,96048.00
2019-01-16T06:15:19.384Z,96052.82
2019-01-16T06:18:47.143Z,96040.78
2019-01-16T06:21:41.471Z,96031.11
2019-01-16T06:24:50.073Z,96037.56
2019-01-16T06:27:58.999Z,96032.61
2019-01-16T06:31:08.508Z,96024.37
2019-01-16T06:34:01.670Z,96013.13
2019-01-16T06:37:08.540Z,96013.88
2019-01-16T06:40:17.110Z,96012.40
2019-01-16T06:43:18.430Z,96003.68
2019-01-16T06:46:27.057Z,95985.21
2019-01-16T06:49:36.781Z,96008.95
2019-01-16T06:52:45.475Z,96009.09
2019-01-16T06:55:51.509Z,96017.27
2019-01-16T06:58:40.536Z,96006.29
2019-01-16T07:01:49.176Z,96030.35
2019-01-16T07:04:57.751Z,96026.19
2019-01-16T07:11:17.785Z,96018.88
2019-01-16T07:14:26.445Z,96010.30
2019-01-16T07:17:26.937Z,96022.50
2019-01-16T07:20:55.450Z,96004.00
2019-01-16T07:23:46.044Z,96018.72
2019-01-16T07:26:54.606Z,96021.69
2019-01-16T07:29:49.560Z,96026.12
2019-01-16T07:32:48.736Z,96024.97
2019-01-16T07:35:50.132Z,96029.98
2019-01-16T07:38:58.683Z,96035.19
2019-01-16T07:42:05.942Z,96032.05
2019-01-16T07:45:14.665Z,96019.69
2019-01-16T07:48:05.766Z,96026.90
2019-01-16T07:51:14.596Z,96021.75
2019-01-16T07:54:04.344Z,96026.23
2019-01-16T07:57:13.042Z,96032.67
2019-01-16T08:00:14.394Z,96028.06
2019-01-16T08:03:23.115Z,96021.61
2019-01-16T08:06:14.506Z,96016.44
2019-01-16T08:12:18.018Z,96019.02
2019-01-16T08:15:23.950Z,96014.36
2019-01-16T08:18:25.000Z,96018.80
2019-01-16T08:21:33.662Z,96025.16
2019-01-16T08:24:42.286Z,96020.11
2019-01-16T08:27:45.998Z,96021.99
2019-01-16T08:30:54.718Z,96022.70
2019-01-16T08:34:22.437Z,96019.41
2019-01-16T08:37:31.064Z,96014.18
2019-01-16T08:40:39.692Z,96024.97
2019-01-16T08:43:48.278Z,96031.10
2019-01-16T08:46:49.366Z,96034.30
2019-01-16T08:49:54.156Z,96017.18
2019-01-16T08:53:04.892Z,96032.02
2019-01-16T08:56:13.532Z,96032.98
2019-01-16T08:59:22.162Z,96032.02
2019-01-16T09:02:30.787Z,96025.01
2019-01-16T09:08:27.946Z,96005.80
2019-01-16T09:11:36.597Z,96008.80
2019-01-16T09:14:41.397Z,96020.98
2019-01-16T09:17:36.166Z,95998.88
2019-01-16T09:20:44.720Z,96010.58
2019-01-16T09:23:47.172Z,95999.88
2019-01-16T09:27:14.896Z,96006.81
2019-01-16T09:30:15.765Z,95996.47
2019-01-16T09:33:24.464Z,95980.94
2019-01-16T09:36:30.951Z,95992.61
2019-01-16T09:39:32.811Z,95989.98
2019-01-16T09:42:36.823Z,95984.43
2019-01-16T09:45:45.477Z,95973.59
2019-01-16T09:48:54.499Z,95992.41
2019-01-16T09:52:03.144Z,95991.11
2019-01-16T09:55:11.697Z,95991.16
2019-01-16T09:58:19.231Z,95991.18
2019-01-16T10:01:27.767Z,95966.52
2019-01-16T10:04:36.359Z,95993.55
2019-01-16T10:07:38.101Z,95985.84
2019-01-16T10:10:46.737Z,95984.53
2019-01-16T10:13:45.188Z,95968.07
2019-01-16T10:16:46.473Z,95981.34
2019-01-16T10:19:47.816Z,95974.09
2019-01-16T10:22:56.465Z,95954.44
2019-01-16T10:26:05.075Z,95969.81
2019-01-16T10:29:06.267Z,95965.66
2019-01-16T10:32:14.960Z,95961.18
2019-01-16T10:35:24.052Z,95952.28
2019-01-16T10:38:32.784Z,95921.32
2019-01-16T10:41:41.415Z,95944.05
2019-01-16T10:44:50.052Z,95937.50
2019-01-16T10:47:58.675Z,95934.38
2019-01-16T10:51:07.409Z,95917.69
2019-01-16T10:54:10.869Z,95916.42
2019-01-16T10:57:19.549Z,95883.24
2019-01-16T11:00:30.716Z,95899.77
2019-01-16T11:03:31.111Z,95896.72
2019-01-16T11:06:39.707Z,95887.30
2019-01-16T11:09:48.477Z,95885.17
2019-01-16T11:12:57.151Z,95858.66
2019-01-16T11:16:05.813Z,95856.19
2019-01-16T11:19:06.825Z,95862.79
2019-01-16T11:22:15.530Z,95860.14
2019-01-16T11:28:42.515Z,95845.20
2019-01-16T11:31:38.341Z,95846.69
2019-01-16T11:34:46.945Z,95844.12
2019-01-16T11:37:46.267Z,95833.86
2019-01-16T11:40:54.907Z,95843.81
2019-01-16T11:44:03.485Z,95832.32
2019-01-16T11:47:31.199Z,95828.33
2019-01-16T11:50:39.798Z,95823.30
2019-01-16T11:53:48.406Z,95817.59
2019-01-16T11:56:57.011Z,95805.52
2019-01-16T12:00:05.786Z,95793.09
2019-01-16T12:03:14.384Z,95805.50
2019-01-16T12:06:15.851Z,95803.48
2019-01-16T12:12:33.500Z,95795.44
2019-01-16T12:15:42.123Z,95779.52
2019-01-16T12:18:50.716Z,95772.33
2019-01-16T12:21:59.752Z,95769.58
2019-01-16T12:25:08.352Z,95763.00
2019-01-16T12:28:16.938Z,95749.14
2019-01-16T12:31:25.468Z,95752.67
2019-01-16T12:34:26.648Z,95748.58
2019-01-16T12:37:35.271Z,95743.15
2019-01-16T12:40:43.850Z,95756.13
2019-01-16T12:43:45.541Z,95742.70
2019-01-16T12:46:54.167Z,95741.06
2019-01-16T12:50:01.622Z,95726.72
2019-01-16T12:53:10.380Z,95733.42
2019-01-16T12:56:18.996Z,95722.27
2019-01-16T12:59:27.576Z,95695.19
2019-01-16T13:02:35.050Z,95719.66
2019-01-16T13:05:43.912Z,95721.00
2019-01-16T13:08:52.530Z,95697.80
2019-01-16T13:15:17.860Z,95681.10
2019-01-16T13:18:26.377Z,95689.73
2019-01-16T13:21:39.824Z,95680.80
2019-01-16T13:24:39.722Z,95680.25
2019-01-16T13:27:39.167Z,95678.39
2019-01-16T13:30:47.727Z,95655.13
2019-01-16T13:33:48.853Z,95661.98
2019-01-16T13:36:50.608Z,95658.70
2019-01-16T13:39:59.659Z,95653.58
2019-01-16T13:43:08.285Z,95651.97
2019-01-16T13:46:10.045Z,95644.61
2019-01-16T13:49:17.000Z,95646.83
2019-01-16T13:52:25.734Z,95643.04
2019-01-16T13:55:30.392Z,95641.13
2019-01-16T13:58:58.099Z,95637.55
2019-01-16T14:01:48.735Z,95623.66
2019-01-16T14:04:47.657Z,95626.37
2019-01-16T14:07:56.324Z,95631.00
2019-01-16T14:11:24.070Z,95627.80
2019-01-16T14:17:12.792Z,95623.52
2019-01-16T14:23:43.458Z,95616.15
2019-01-16T14:26:51.999Z,95616.01
2019-01-16T14:29:55.087Z,95610.98
2019-01-16T14:33:03.623Z,95605.99
2019-01-16T14:36:08.664Z,95598.41
2019-01-16T14:39:13.952Z,95598.75
2019-01-16T14:42:15.023Z,95600.08
2019-01-16T14:45:23.932Z,95597.10
2019-01-16T14:48:25.632Z,95602.73
2019-01-16T14:51:34.195Z,95594.14
2019-01-16T14:54:35.711Z,95594.09
2019-01-16T14:57:44.263Z,95593.27
2019-01-16T15:00:45.737Z,95587.64
2019-01-16T15:03:54.535Z,95591.30
2019-01-16T15:06:58.176Z,95593.92
2019-01-16T15:10:06.776Z,95572.52
2019-01-16T15:13:15.451Z,95597.36
2019-01-16T15:16:24.115Z,95570.97
2019-01-16T15:19:32.730Z,95595.41
2019-01-16T15:22:39.643Z,95588.36
2019-01-16T15:25:48.263Z,95585.16
2019-01-16T15:28:56.894Z,95565.56
2019-01-16T15:32:05.491Z,95560.73
2019-01-16T15:35:14.077Z,95554.04
2019-01-16T15:38:22.747Z,95566.55
2019-01-16T15:41:31.583Z,95575.95
2019-01-16T15:44:40.170Z,95577.97
2019-01-16T15:47:48.779Z,95552.09
2019-01-16T15:50:57.405Z,95571.25
2019-01-16T15:53:59.699Z,95568.03
2019-01-16T15:57:08.245Z,95564.14
2019-01-16T16:00:16.793Z,95544.23
2019-01-16T16:03:17.775Z,95541.72
2019-01-16T16:06:26.341Z,95555.73
2019-01-16T16:09:28.263Z,95554.28
2019-01-16T16:12:36.773Z,95541.05
2019-01-16T16:15:41.665Z,95548.48
2019-01-16T16:18:50.212Z,95541.68
2019-01-16T16:21:54.778Z,95543.38
2019-01-16T16:25:03.383Z,95544.25
2019-01-16T16:28:04.443Z,95543.05
2019-01-16T16:31:13.029Z,95539.00
2019-01-16T16:34:21.662Z,95536.98
2019-01-16T16:37:31.041Z,95539.83
2019-01-16T16:40:39.630Z,95539.20
2019-01-16T16:43:40.891Z,95540.53
2019-01-16T16:47:08.612Z,95535.41
2019-01-16T16:50:30.606Z,95534.50
2019-01-16T16:53:31.496Z,95521.63
2019-01-16T16:56:40.103Z,95525.56
2019-01-16T16:59:41.252Z,95523.47
2019-01-16T17:02:49.822Z,95519.91
2019-01-16T17:05:52.106Z,95501.88
2019-01-16T17:09:01.142Z,95524.77
2019-01-16T17:12:02.774Z,95503.84
2019-01-16T17:15:11.320Z,95520.98
2019-01-16T17:18:12.264Z,95523.11
2019-01-16T17:21:20.784Z,95519.78
2019-01-16T17:24:22.496Z,95523.12
2019-01-16T17:27:31.068Z,95516.46
2019-01-16T17:30:32.436Z,95518.03
2019-01-16T17:33:41.008Z,95515.55
2019-01-16T17:36:41.964Z,95521.36
2019-01-16T17:42:56.516Z,95515.61
2019-01-16T17:46:03.101Z,95521.36
2019-01-16T17:49:03.960Z,95496.06
2019-01-16T17:52:05.088Z,95512.63
2019-01-16T17:55:13.610Z,95514.13
2019-01-16T17:58:22.194Z,95510.66
2019-01-16T18:01:25.334Z,95479.97
2019-01-16T18:04:26.548Z,95509.02
2019-01-16T18:07:35.187Z,95507.94
2019-01-16T18:10:43.823Z,95510.72
2019-01-16T18:13:48.100Z,95505.45
2019-01-16T18:16:56.737Z,95496.54
2019-01-16T18:20:05.480Z,95496.68
2019-01-16T18:23:11.259Z,95509.20
2019-01-16T18:26:12.704Z,95513.02
2019-01-16T18:29:12.030Z,95511.01
2019-01-16T18:32:20.702Z,95510.95
2019-01-16T18:35:29.307Z,95499.89
2019-01-16T18:38:37.917Z,95508.19
2019-01-16T18:42:05.777Z,95506.42
2019-01-16T18:45:13.550Z,95509.34
2019-01-16T18:48:15.535Z,95513.06
2019-01-16T18:51:17.528Z,95513.76
2019-01-16T18:57:48.815Z,95504.61
2019-01-16T19:00:50.518Z,95489.33
2019-01-16T19:03:59.271Z,95495.00
2019-01-16T19:07:26.978Z,95485.50
2019-01-16T19:10:28.741Z,95491.20
2019-01-16T19:13:37.431Z,95489.95
2019-01-16T19:16:40.202Z,95471.34
2019-01-16T19:19:48.955Z,95494.34
2019-01-16T19:23:09.188Z,95503.33
2019-01-16T19:26:10.355Z,95489.91
2019-01-16T19:29:18.925Z,95486.20
2019-01-16T19:32:26.737Z,95477.30
2019-01-16T19:35:35.309Z,95482.09
2019-01-16T19:38:37.870Z,95460.56
2019-01-16T19:41:46.487Z,95480.17
2019-01-16T19:44:47.588Z,95477.91
2019-01-16T19:47:56.160Z,95473.87
2019-01-16T19:51:01.041Z,95460.89
2019-01-16T19:54:09.884Z,95469.88
2019-01-16T19:57:18.921Z,95469.04
2019-01-16T20:00:33.672Z,95462.66
2019-01-16T20:03:39.477Z,95460.80
2019-01-16T20:06:38.033Z,95467.72
2019-01-16T20:09:46.745Z,95469.40
2019-01-16T20:13:07.930Z,95473.61
2019-01-16T20:15:58.165Z,95469.87
2019-01-16T20:19:06.812Z,95458.83
2019-01-16T20:22:15.391Z,95474.23
2019-01-16T20:25:24.991Z,95469.70
2019-01-16T20:28:33.641Z,95475.08
2019-01-16T20:31:34.895Z,95458.29
2019-01-16T20:34:28.275Z,95472.23
2019-01-16T20:37:37.085Z,95469.50
2019-01-16T20:40:45.834Z,95469.59
2019-01-16T20:43:54.515Z,95465.20
2019-01-16T20:47:15.630Z,95468.07
2019-01-16T20:50:17.040Z,95473.46
2019-01-16T20:53:25.672Z,95464.36
2019-01-16T20:56:27.356Z,95465.85
2019-01-16T20:59:35.897Z,95466.83
2019-01-16T21:02:37.059Z,95462.19
2019-01-16T21:05:45.926Z,95446.61
2019-01-16T21:08:35.930Z,95471.55
2019-01-16T21:11:44.772Z,95475.16
2019-01-16T21:14:49.292Z,95474.25
2019-01-16T21:17:47.410Z,95458.67
2019-01-16T21:23:52.334Z,95465.81
2019-01-16T21:27:00.942Z,95469.84
2019-01-16T21:30:04.288Z,95466.53
2019-01-16T21:33:13.404Z,95459.73
2019-01-16T21:36:09.340Z,95449.88
2019-01-16T21:39:11.802Z,95447.53
2019-01-16T21:42:21.184Z,95436.13
2019-01-16T21:45:25.734Z,95419.53
2019-01-16T21:48:34.894Z,95432.05
2019-01-16T21:57:32.489Z,95427.12
2019-01-16T22:03:47.404Z,95422.44
2019-01-16T22:06:52.866Z,95428.64
2019-01-16T22:09:56.308Z,95415.61
2019-01-16T22:13:05.298Z,95427.06
2019-01-16T22:16:15.486Z,95426.44
2019-01-16T22:19:24.096Z,95420.06
2019-01-16T22:22:32.869Z,95407.09
2019-01-16T22:26:00.242Z,95419.39
2019-01-16T22:28:57.120Z,95419.05
2019-01-16T22:32:06.088Z,95407.09
2019-01-16T22:35:06.941Z,95418.42
2019-01-16T22:38:07.234Z,95417.92
2019-01-16T22:41:08.548Z,95420.09
2019-01-16T22:44:17.425Z,95404.39
2019-01-16T22:47:20.612Z,95406.37
2019-01-16T22:50:20.744Z,95407.97
2019-01-16T22:53:26.146Z,95384.33
2019-01-16T22:56:35.472Z,95405.99
2019-01-16T22:59:37.066Z,95391.30
2019-01-16T23:05:41.522Z,95400.83
2019-01-16T23:08:50.158Z,95400.10
2019-01-16T23:11:58.776Z,95398.85
2019-01-16T23:15:00.285Z,95388.13
2019-01-16T23:18:01.836Z,95396.56
2019-01-16T23:21:03.607Z,95401.05
2019-01-16T23:24:12.213Z,95403.05
2019-01-16T23:27:18.655Z,95404.05
2019-01-16T23:30:18.278Z,95408.38
2019-01-16T23:33:21.967Z,95403.11
2019-01-16T23:36:30.593Z,95402.58
2019-01-16T23:39:24.479Z,95402.42
2019-01-16T23:42:33.080Z,95403.84
2019-01-16T23:45:36.937Z,95409.23
2019-01-16T23:48:45.530Z,95407.63
2019-01-16T23:51:46.817Z,95399.48
2019-01-16T23:54:55.393Z,95398.59
2019-01-16T23:57:53.363Z,95384.43
